createdAt,value
2023-03-11T05:02:22.964Z,13.10
2023-03-11T05:04:54.697Z,7.83
2023-03-11T05:07:26.414Z,7.43
2023-03-11T05:09:58.086Z,11.70
2023-03-11T05:12:29.729Z,6.77
2023-03-11T05:15:01.395Z,11.10
2023-03-11T05:17:34.385Z,6.83
2023-03-11T05:20:07.061Z,10.50
2023-03-11T05:22:38.712Z,12.90
2023-03-11T05:25:10.373Z,7.23
2023-03-11T05:27:42.046Z,6.67
2023-03-11T05:30:14.044Z,8.03
2023-03-11T05:32:47.041Z,10.50
2023-03-11T05:35:18.840Z,8.23
2023-03-11T05:37:50.489Z,13.80
2023-03-11T05:40:22.253Z,7.57
2023-03-11T05:42:53.903Z,6.97
2023-03-11T05:45:25.626Z,8.80
2023-03-11T05:47:58.632Z,6.13
2023-03-11T05:50:30.332Z,11.00
2023-03-11T05:53:01.973Z,7.60
2023-03-11T05:55:33.628Z,9.97
2023-03-11T05:58:05.331Z,10.23
2023-03-11T06:00:37.084Z,8.20
2023-03-11T06:03:10.104Z,11.00
2023-03-11T06:05:45.094Z,6.30
2023-03-11T06:08:16.903Z,10.90
2023-03-11T06:10:49.078Z,13.63
2023-03-11T06:13:20.782Z,11.53
2023-03-11T06:15:52.479Z,11.60
2023-03-11T06:18:25.519Z,10.77
2023-03-11T06:20:58.264Z,8.60
2023-03-11T06:23:30.137Z,7.90
2023-03-11T06:26:02.819Z,9.33
2023-03-11T06:28:34.514Z,9.23
2023-03-11T06:31:09.231Z,6.50
2023-03-11T06:33:42.292Z,12.17
2023-03-11T06:36:14.793Z,5.50
2023-03-11T06:38:46.535Z,9.77
2023-03-11T06:41:18.207Z,7.87
2023-03-11T06:43:49.929Z,6.13
2023-03-11T06:46:22.179Z,12.13
2023-03-11T06:48:55.603Z,6.30
2023-03-11T06:51:27.262Z,9.20
2023-03-11T06:53:58.936Z,11.70
2023-03-11T06:56:30.586Z,6.80
2023-03-11T06:59:02.275Z,12.47
2023-03-11T07:01:33.969Z,7.07
2023-03-11T07:04:07.032Z,8.57
2023-03-11T07:06:38.694Z,15.00
2023-03-11T07:09:10.381Z,11.50
2023-03-11T07:11:42.026Z,10.20
2023-03-11T07:14:14.292Z,12.37
2023-03-11T07:16:46.032Z,6.77
2023-03-11T07:19:19.109Z,13.93
2023-03-11T07:21:50.746Z,11.00
2023-03-11T07:24:22.406Z,8.97
2023-03-11T07:26:54.043Z,8.43
2023-03-11T07:29:25.720Z,7.83
2023-03-11T07:31:57.435Z,4.93
2023-03-11T07:34:32.838Z,6.13
2023-03-11T07:37:04.515Z,6.30
2023-03-11T07:39:36.188Z,9.53
2023-03-11T07:42:08.105Z,5.90
2023-03-11T07:44:39.751Z,5.57
2023-03-11T07:47:11.393Z,8.60
2023-03-11T07:49:44.752Z,6.03
2023-03-11T07:52:16.410Z,4.20
2023-03-11T07:54:48.069Z,16.63
2023-03-11T07:57:19.723Z,12.17
2023-03-11T07:59:51.522Z,10.63
2023-03-11T08:02:23.209Z,8.37
2023-03-11T08:04:57.155Z,11.17
2023-03-11T08:07:31.256Z,11.30
2023-03-11T08:10:03.137Z,10.33
2023-03-11T08:12:34.780Z,9.10
2023-03-11T08:15:07.767Z,10.10
2023-03-11T08:17:39.417Z,11.00
2023-03-11T08:20:13.307Z,10.83
2023-03-11T08:22:57.283Z,9.40
2023-03-11T08:25:29.938Z,10.30
2023-03-11T08:28:01.580Z,10.07
2023-03-11T08:30:33.315Z,10.00
2023-03-11T08:33:05.006Z,7.17
2023-03-11T08:35:38.181Z,13.27
2023-03-11T08:38:10.057Z,6.00
2023-03-11T08:40:41.719Z,6.20
2023-03-11T08:43:13.669Z,6.40
2023-03-11T08:45:45.449Z,7.87
2023-03-11T08:48:17.113Z,6.23
2023-03-11T08:50:54.323Z,6.13
2023-03-11T08:53:26.820Z,5.77
2023-03-11T08:55:58.850Z,10.00
2023-03-11T08:58:30.519Z,5.37
2023-03-11T09:01:02.205Z,5.63
2023-03-11T09:03:34.082Z,8.93
2023-03-11T09:06:08.749Z,7.60
2023-03-11T09:08:40.499Z,13.77
2023-03-11T09:11:12.527Z,7.63
2023-03-11T09:13:44.193Z,7.17
2023-03-11T09:16:16.584Z,5.57
2023-03-11T09:18:48.323Z,6.27
2023-03-11T09:21:21.332Z,4.53
2023-03-11T09:23:53.014Z,6.53
2023-03-11T09:26:24.649Z,9.03
2023-03-11T09:28:56.316Z,7.57
2023-03-11T09:31:28.030Z,7.83
2023-03-11T09:33:59.705Z,7.00
2023-03-11T09:36:32.693Z,6.83
2023-03-11T09:39:04.413Z,4.43
2023-03-11T09:41:51.572Z,11.13
2023-03-11T09:44:31.413Z,5.63
2023-03-11T09:47:24.002Z,7.93
2023-03-11T09:50:24.625Z,5.13
2023-03-11T09:53:19.433Z,2.73
2023-03-11T09:55:52.094Z,9.77
2023-03-11T09:58:34.915Z,7.17
2023-03-11T10:01:12.692Z,4.80
2023-03-11T10:03:44.371Z,6.93
2023-03-11T10:06:17.243Z,2.87
2023-03-11T10:08:54.465Z,2.27
2023-03-11T10:11:31.542Z,3.17
2023-03-11T10:14:10.529Z,3.80
2023-03-11T10:16:46.481Z,2.13
2023-03-11T10:19:23.065Z,3.53
2023-03-11T10:21:59.096Z,5.87
2023-03-11T10:24:42.086Z,2.77
2023-03-11T10:27:15.381Z,5.43
2023-03-11T10:29:52.050Z,2.40
2023-03-11T10:32:25.526Z,3.60
2023-03-11T10:34:59.016Z,4.63
2023-03-11T10:37:46.605Z,4.33
2023-03-11T10:40:28.383Z,4.30
2023-03-11T10:43:00.877Z,3.27
2023-03-11T10:45:36.789Z,3.23
2023-03-11T10:48:10.171Z,3.87
2023-03-11T10:50:50.912Z,3.33
2023-03-11T10:53:22.559Z,2.67
2023-03-11T10:55:56.880Z,3.30
2023-03-11T10:58:29.411Z,5.93
2023-03-11T11:01:05.195Z,2.33
2023-03-11T11:03:36.895Z,2.87
2023-03-11T11:06:22.283Z,4.07
2023-03-11T11:09:15.015Z,3.93
2023-03-11T11:12:02.440Z,4.43
2023-03-11T11:14:44.323Z,7.53
2023-03-11T11:17:17.616Z,4.83
2023-03-11T11:19:49.329Z,5.90
2023-03-11T11:22:21.586Z,3.03
2023-03-11T11:24:54.158Z,3.10
2023-03-11T11:27:27.652Z,2.80
2023-03-11T11:30:14.783Z,4.63
2023-03-11T11:32:46.479Z,4.53
2023-03-11T11:35:18.316Z,4.13
2023-03-11T11:37:51.083Z,5.40
2023-03-11T11:40:27.585Z,4.27
2023-03-11T11:43:03.278Z,5.13
2023-03-11T11:45:36.719Z,4.00
2023-03-11T11:48:14.431Z,3.93
2023-03-11T11:50:48.358Z,7.70
2023-03-11T11:53:25.097Z,4.60
2023-03-11T11:55:56.751Z,3.73
2023-03-11T11:58:29.912Z,2.17
2023-03-11T12:01:07.615Z,3.83
2023-03-11T12:04:13.886Z,5.07
2023-03-11T12:06:47.720Z,6.33
2023-03-11T12:09:24.100Z,2.57
2023-03-11T12:11:59.224Z,5.67
2023-03-11T12:14:35.112Z,4.47
2023-03-11T12:17:06.764Z,8.93
2023-03-11T12:19:40.812Z,5.60
2023-03-11T12:22:19.709Z,3.20
2023-03-11T12:25:08.649Z,6.50
2023-03-11T12:27:42.356Z,6.30
2023-03-11T12:30:17.027Z,4.60
2023-03-11T12:32:49.813Z,7.03
2023-03-11T12:35:23.856Z,5.10
2023-03-11T12:37:56.298Z,5.13
2023-03-11T12:40:47.250Z,4.33
2023-03-11T12:43:26.177Z,7.30
2023-03-11T12:45:59.327Z,3.47
2023-03-11T12:48:34.818Z,3.67
2023-03-11T12:51:06.522Z,7.57
2023-03-11T12:53:45.564Z,3.10
2023-03-11T12:56:25.340Z,6.43
2023-03-11T12:59:03.597Z,3.33
2023-03-11T13:01:44.023Z,4.60
2023-03-11T13:04:20.636Z,3.93
2023-03-11T13:07:14.644Z,3.83
2023-03-11T13:09:46.355Z,13.00
2023-03-11T13:12:38.183Z,5.03
2023-03-11T13:15:29.325Z,4.63
2023-03-11T13:18:03.688Z,6.47
2023-03-11T13:20:59.528Z,2.57
2023-03-11T13:23:32.947Z,2.63
2023-03-11T13:26:25.580Z,3.10
2023-03-11T13:29:21.024Z,7.70
2023-03-11T13:31:56.922Z,3.87
2023-03-11T13:34:31.748Z,4.90
2023-03-11T13:37:18.152Z,7.73
2023-03-11T13:39:53.290Z,3.60
2023-03-11T13:42:27.980Z,3.63
2023-03-11T13:45:00.168Z,3.67
2023-03-11T13:47:34.698Z,3.33
2023-03-11T13:50:09.609Z,1.90
2023-03-11T13:52:44.097Z,3.67
2023-03-11T13:55:20.356Z,4.27
2023-03-11T13:57:52.739Z,7.67
2023-03-11T14:00:25.258Z,3.20
2023-03-11T14:02:59.321Z,3.13
2023-03-11T14:05:35.137Z,4.57
2023-03-11T14:08:13.020Z,2.70
2023-03-11T14:10:51.893Z,3.67
2023-03-11T14:13:24.038Z,6.53
2023-03-11T14:15:59.415Z,4.37
2023-03-11T14:18:33.385Z,4.97
2023-03-11T14:21:10.622Z,8.47
2023-03-11T14:23:43.275Z,7.17
2023-03-11T14:26:16.011Z,4.97
2023-03-11T14:28:49.088Z,4.60
2023-03-11T14:31:22.862Z,2.57
2023-03-11T14:33:55.715Z,4.27
2023-03-11T14:36:28.851Z,4.70
2023-03-11T14:39:02.469Z,3.73
2023-03-11T14:41:34.401Z,7.53
2023-03-11T14:44:06.034Z,5.13
2023-03-11T14:46:37.685Z,6.97
2023-03-11T14:49:12.466Z,5.73
2023-03-11T14:51:46.556Z,6.27
2023-03-11T14:54:19.780Z,4.00
2023-03-11T14:56:59.650Z,5.57
2023-03-11T14:59:31.574Z,3.77
2023-03-11T15:02:23.253Z,3.27
2023-03-11T15:04:55.030Z,5.80
2023-03-11T15:07:28.013Z,5.90
2023-03-11T15:09:59.713Z,8.37
2023-03-11T15:12:32.327Z,4.87
2023-03-11T15:15:21.536Z,2.63
2023-03-11T15:17:53.790Z,3.60
2023-03-11T15:20:27.185Z,6.77
2023-03-11T15:23:00.995Z,4.27
2023-03-11T15:25:33.845Z,3.50
2023-03-11T15:28:20.827Z,3.90
2023-03-11T15:31:00.621Z,10.73
2023-03-11T15:33:33.173Z,5.27
2023-03-11T15:36:05.478Z,4.07
2023-03-11T15:38:38.463Z,4.87
2023-03-11T15:41:10.123Z,8.60
2023-03-11T15:43:43.301Z,5.47
2023-03-11T15:46:15.369Z,3.40
2023-03-11T15:48:47.370Z,3.87
2023-03-11T15:51:19.883Z,4.90
2023-03-11T15:53:53.244Z,6.63
2023-03-11T15:56:25.274Z,2.97
2023-03-11T15:58:57.271Z,3.70
2023-03-11T16:01:29.299Z,6.17
2023-03-11T16:04:01.006Z,5.17
2023-03-11T16:06:32.739Z,3.57
2023-03-11T16:09:05.722Z,6.33
2023-03-11T16:11:37.789Z,2.87
2023-03-11T16:14:11.484Z,3.63
2023-03-11T16:16:43.796Z,4.47
2023-03-11T16:19:15.432Z,4.30
2023-03-11T16:21:47.636Z,4.90
2023-03-11T16:24:22.390Z,6.93
2023-03-11T16:26:54.050Z,5.07
2023-03-11T16:29:25.726Z,2.67
2023-03-11T16:31:57.403Z,5.27
2023-03-11T16:34:29.036Z,5.83
2023-03-11T16:37:00.736Z,3.17
2023-03-11T16:39:33.813Z,5.97
2023-03-11T16:42:05.684Z,7.37
2023-03-11T16:44:37.319Z,4.63
2023-03-11T16:47:08.966Z,6.87
2023-03-11T16:49:40.615Z,5.47
2023-03-11T16:52:12.333Z,4.63
2023-03-11T16:54:45.327Z,4.60
2023-03-11T16:57:16.987Z,2.50
2023-03-11T16:59:48.770Z,7.57
2023-03-11T17:02:21.713Z,4.53
2023-03-11T17:04:55.148Z,4.07
2023-03-11T17:07:26.872Z,3.93
2023-03-11T17:09:59.969Z,6.10
2023-03-11T17:12:31.726Z,3.27
2023-03-11T17:15:04.142Z,5.63
2023-03-11T17:17:35.834Z,6.00
2023-03-11T17:20:09.109Z,6.03
2023-03-11T17:22:40.750Z,4.33
2023-03-11T17:25:13.767Z,5.07
2023-03-11T17:27:45.420Z,6.33
2023-03-11T17:30:27.025Z,6.73
2023-03-11T17:33:02.332Z,5.03
2023-03-11T17:35:34.081Z,4.27
2023-03-11T17:38:05.754Z,14.50
2023-03-11T17:40:38.796Z,5.27
2023-03-11T17:43:10.476Z,7.17
2023-03-11T17:45:42.144Z,5.93
2023-03-11T17:48:13.792Z,12.80
2023-03-11T17:50:45.446Z,8.00
2023-03-11T17:53:17.089Z,13.33
2023-03-11T17:55:50.122Z,9.13
2023-03-11T17:58:21.754Z,9.10
2023-03-11T18:00:53.416Z,11.30
2023-03-11T18:03:25.153Z,17.17
2023-03-11T18:05:57.081Z,14.67
2023-03-11T18:08:28.857Z,5.20
2023-03-11T18:11:02.838Z,10.13
2023-03-11T18:13:34.776Z,9.10
2023-03-11T18:16:08.135Z,4.73
2023-03-11T18:18:41.681Z,5.13
2023-03-11T18:21:14.027Z,5.33
2023-03-11T18:23:45.768Z,4.77
2023-03-11T18:26:18.923Z,6.97
2023-03-11T18:28:52.452Z,5.50
2023-03-11T18:31:24.389Z,11.57
2023-03-11T18:33:56.977Z,10.03
2023-03-11T18:36:29.253Z,9.67
2023-03-11T18:39:01.094Z,9.00
2023-03-11T18:41:35.004Z,8.80
2023-03-11T18:44:06.759Z,5.80
2023-03-11T18:46:38.450Z,7.07
2023-03-11T18:49:11.349Z,6.07
2023-03-11T18:51:43.047Z,6.67
2023-03-11T18:54:14.694Z,10.40
2023-03-11T18:56:47.718Z,7.47
2023-03-11T18:59:19.364Z,6.00
2023-03-11T19:01:51.137Z,9.17
2023-03-11T19:04:22.798Z,7.10
2023-03-11T19:06:54.475Z,6.37
2023-03-11T19:09:26.122Z,7.10
2023-03-11T19:11:59.132Z,7.33
2023-03-11T19:14:30.773Z,7.70
2023-03-11T19:17:02.535Z,10.37
2023-03-11T19:19:34.237Z,8.73
2023-03-11T19:22:05.918Z,9.93
2023-03-11T19:24:37.559Z,8.60
2023-03-11T19:27:10.561Z,9.80
2023-03-11T19:29:42.202Z,10.57
2023-03-11T19:32:13.953Z,10.03
2023-03-11T19:34:45.650Z,13.57
2023-03-11T19:37:17.373Z,14.37
2023-03-11T19:39:49.018Z,11.27
2023-03-11T19:42:22.060Z,11.03
2023-03-11T19:44:53.768Z,10.77
2023-03-11T19:47:25.506Z,13.97
2023-03-11T19:49:57.148Z,8.57
2023-03-11T19:52:28.812Z,12.00
2023-03-11T19:55:00.450Z,11.43
2023-03-11T19:57:33.481Z,9.83
2023-03-11T20:00:06.425Z,16.70
2023-03-11T20:02:38.154Z,9.97
2023-03-11T20:05:10.286Z,11.70
2023-03-11T20:07:42.012Z,14.03
2023-03-11T20:10:15.023Z,18.17
2023-03-11T20:13:01.398Z,16.50
2023-03-11T20:15:34.003Z,14.17
2023-03-11T20:18:05.915Z,15.60
2023-03-11T20:20:38.035Z,10.40
2023-03-11T20:23:09.792Z,12.93
2023-03-11T20:25:41.751Z,13.33
2023-03-11T20:28:14.823Z,10.27
2023-03-11T20:30:46.584Z,12.10
2023-03-11T20:33:18.359Z,15.30
2023-03-11T20:35:50.164Z,11.03
2023-03-11T20:38:21.988Z,11.73
2023-03-11T20:40:55.372Z,9.73
2023-03-11T20:43:28.392Z,12.47
2023-03-11T20:46:00.235Z,13.90
2023-03-11T20:48:32.025Z,13.17
2023-03-11T20:51:04.349Z,14.53
2023-03-11T20:53:36.007Z,12.87
2023-03-11T20:56:08.604Z,13.40
2023-03-11T20:58:41.780Z,10.67
2023-03-11T21:01:13.810Z,13.97
2023-03-11T21:03:45.607Z,16.30
2023-03-11T21:06:18.113Z,12.70
2023-03-11T21:08:49.880Z,14.47
2023-03-11T21:11:21.863Z,14.17
2023-03-11T21:13:55.541Z,11.63
2023-03-11T21:16:27.421Z,12.97
2023-03-11T21:18:59.147Z,14.23
2023-03-11T21:21:30.935Z,12.83
2023-03-11T21:24:02.754Z,10.07
2023-03-11T21:26:34.555Z,14.03
2023-03-11T21:29:07.674Z,12.93
2023-03-11T21:31:39.447Z,12.67
2023-03-11T21:34:11.188Z,9.33
2023-03-11T21:36:43.059Z,10.00
2023-03-11T21:39:14.857Z,10.33
2023-03-11T21:41:46.614Z,10.67
2023-03-11T21:44:19.754Z,10.13
2023-03-11T21:46:51.542Z,9.63
2023-03-11T21:49:23.442Z,11.87
2023-03-11T21:51:55.225Z,14.07
2023-03-11T21:54:26.913Z,10.27
2023-03-11T21:56:58.827Z,15.80
2023-03-11T21:59:31.984Z,10.87
2023-03-11T22:02:03.880Z,15.67
2023-03-11T22:04:35.658Z,12.40
2023-03-11T22:07:07.436Z,12.10
2023-03-11T22:09:39.187Z,14.20
2023-03-11T22:12:10.852Z,14.50
2023-03-11T22:14:44.012Z,16.77
2023-03-11T22:17:15.927Z,12.03
2023-03-11T22:19:47.824Z,15.67
2023-03-11T22:22:19.556Z,10.70
2023-03-11T22:24:51.233Z,14.07
2023-03-11T22:27:22.914Z,15.10
2023-03-11T22:29:55.931Z,15.83
2023-03-11T22:32:27.622Z,13.77
2023-03-11T22:34:59.314Z,12.53
2023-03-11T22:37:31.004Z,12.33
2023-03-11T22:40:02.994Z,16.00
2023-03-11T22:42:34.668Z,9.97
2023-03-11T22:45:08.437Z,11.57
2023-03-11T22:47:40.356Z,11.57
2023-03-11T22:50:12.030Z,14.57
2023-03-11T22:52:43.714Z,11.63
2023-03-11T22:55:15.488Z,9.57
2023-03-11T22:57:47.154Z,10.00
